Time;durP1;ratioP1;P1;durP2;ratioP2;P2;SDS_P1;SDS_P2;PMS_P1;PMS_P2;Temp;Humidity;BMP_temperature;BMP_pressure;BME280_temperature;BME280_humidity;BME280_pressure;Samples;Min_cycle;Max_cycle;Signal;HPM_P1;HPM_P2
2021/12/06 00:01:10;;;;;;;28.85;20.33;;;;;;;2.80;95.69;101173.00;5033358;28;20033;-91
2021/12/06 00:03:43;;;;;;;25.50;18.40;;;;;;;2.79;96.29;101177.34;5051303;28;20201;-91
2021/12/06 00:06:10;;;;;;;26.70;18.90;;;;;;;2.82;95.99;101173.91;5066637;28;20075;-90
2021/12/06 00:08:36;;;;;;;26.45;18.83;;;;;;;2.84;95.91;101182.63;5033053;28;20046;-90
2021/12/06 00:11:07;;;;;;;26.23;18.55;;;;;;;2.86;95.96;101180.03;5049656;28;20464;-91
2021/12/06 00:13:38;;;;;;;28.98;17.95;;;;;;;2.83;95.82;101183.50;5033160;28;20033;-91
2021/12/06 00:16:08;;;;;;;26.43;18.97;;;;;;;2.87;95.68;101180.06;5051174;28;20044;-91
2021/12/06 00:18:35;;;;;;;33.97;19.80;;;;;;;2.88;96.51;101183.56;5049473;28;20123;-91
2021/12/06 00:21:00;;;;;;;31.25;19.02;;;;;;;2.90;95.89;101190.56;5033082;28;20059;-91
2021/12/06 00:23:27;;;;;;;28.90;19.95;;;;;;;2.86;96.22;101194.00;5036051;28;20057;-91
2021/12/06 00:25:53;;;;;;;28.40;20.25;;;;;;;2.88;96.81;101188.78;5054956;28;20421;-91
2021/12/06 00:28:19;;;;;;;30.05;19.33;;;;;;;2.92;96.55;101199.34;5036499;28;20125;-91
2021/12/06 00:30:45;;;;;;;27.00;19.27;;;;;;;2.93;96.27;101200.19;5036847;28;20116;-91
2021/12/06 00:33:10;;;;;;;33.03;20.15;;;;;;;2.94;96.54;101202.84;5053553;28;20033;-92
2021/12/06 00:35:36;;;;;;;28.80;19.63;;;;;;;2.91;95.96;101196.69;5053516;28;20567;-91
2021/12/06 00:38:01;;;;;;;35.88;20.88;;;;;;;2.93;96.09;101195.84;5057365;28;20045;-91
2021/12/06 00:40:38;;;;;;;29.85;19.13;;;;;;;2.87;96.38;101197.47;5039671;28;20029;-91
2021/12/06 00:43:04;;;;;;;30.08;19.63;;;;;;;2.94;96.17;101209.78;5053680;28;20029;-91
2021/12/06 00:45:30;;;;;;;29.20;19.33;;;;;;;2.94;96.37;101215.03;5036801;28;20048;-91
2021/12/06 00:47:55;;;;;;;25.50;19.20;;;;;;;2.92;96.21;101217.66;5036595;28;20037;-91
2021/12/06 00:50:23;;;;;;;32.88;21.52;;;;;;;2.89;96.43;101221.94;5053436;28;20020;-91
2021/12/06 00:52:50;;;;;;;30.92;18.58;;;;;;;2.89;96.26;101229.78;5036511;28;20025;-92
2021/12/06 00:55:16;;;;;;;28.83;20.60;;;;;;;2.92;96.05;101235.09;5053335;28;20029;-91
2021/12/06 00:57:43;;;;;;;28.30;19.00;;;;;;;2.98;95.97;101246.50;5036651;28;20029;-91
2021/12/06 01:00:35;;;;;;;32.63;21.33;;;;;;;2.95;96.48;101251.69;5020105;28;20048;-91
2021/12/06 01:03:10;;;;;;;29.83;18.20;;;;;;;2.97;96.43;101256.97;5040982;28;20047;-91
2021/12/06 01:05:36;;;;;;;30.80;19.58;;;;;;;3.00;96.45;101267.47;5053330;28;20391;-91
2021/12/06 01:08:02;;;;;;;31.95;21.45;;;;;;;2.99;95.80;101271.81;5053176;28;20433;-91
2021/12/06 01:10:29;;;;;;;29.55;20.58;;;;;;;2.99;96.05;101266.59;5054320;28;20179;-91
2021/12/06 01:12:56;;;;;;;31.83;20.67;;;;;;;2.96;96.34;101269.13;5036430;28;20036;-91
2021/12/06 01:15:21;;;;;;;39.92;20.92;;;;;;;2.97;96.15;101259.56;5053263;28;20029;-91
2021/12/06 01:17:47;;;;;;;29.50;21.80;;;;;;;2.93;95.62;101250.78;5036563;28;20112;-91
2021/12/06 01:20:19;;;;;;;28.15;18.65;;;;;;;2.89;96.13;101246.34;5036376;28;20514;-91
2021/12/06 01:22:53;;;;;;;28.20;20.38;;;;;;;2.97;95.64;101262.19;5036303;28;20029;-91
2021/12/06 01:25:31;;;;;;;28.02;19.88;;;;;;;2.93;96.29;101253.41;5052629;28;20182;-91
2021/12/06 01:33:43;;;;;;;31.65;21.05;;;;;;;2.91;96.06;101265.56;5051838;28;20068;-91
2021/12/06 01:41:14;;;;;;;28.00;18.27;;;;;;;2.88;95.99;101270.75;5024382;28;20037;-91
2021/12/06 01:44:08;;;;;;;30.30;19.80;;;;;;;2.92;95.69;101282.16;5035994;28;20063;-90
2021/12/06 01:46:43;;;;;;;28.58;20.20;;;;;;;2.88;95.52;101281.22;5052593;28;20028;-90
2021/12/06 01:49:11;;;;;;;32.45;21.52;;;;;;;2.88;96.03;101277.72;5035777;28;20029;-91
2021/12/06 01:51:38;;;;;;;30.15;20.33;;;;;;;2.89;95.62;101287.31;5035782;28;20029;-90
2021/12/06 01:54:08;;;;;;;28.67;19.92;;;;;;;2.85;95.82;101286.41;5035606;28;20028;-91
2021/12/06 01:56:34;;;;;;;29.00;20.35;;;;;;;2.87;96.02;101292.56;5052365;28;20040;-91
2021/12/06 01:59:00;;;;;;;28.13;20.27;;;;;;;2.84;95.48;101287.25;5035537;28;20025;-91
2021/12/06 02:01:28;;;;;;;29.23;20.45;;;;;;;2.80;95.80;101288.94;5019424;28;20128;-91
2021/12/06 02:03:53;;;;;;;35.15;20.60;;;;;;;2.82;96.22;101296.81;5051955;28;20501;-91
2021/12/06 02:06:19;;;;;;;29.42;21.13;;;;;;;2.82;96.15;101294.22;5035277;28;20029;-91
2021/12/06 02:08:47;;;;;;;29.70;20.55;;;;;;;2.81;96.08;101292.44;5035515;28;20036;-91
2021/12/06 02:11:13;;;;;;;33.17;21.50;;;;;;;2.85;96.23;101296.88;5035269;28;20055;-91
2021/12/06 02:13:54;;;;;;;32.10;21.88;;;;;;;2.87;95.93;101302.09;5051971;28;20383;-91
2021/12/06 02:16:28;;;;;;;29.45;19.65;;;;;;;2.84;95.66;101291.59;5036910;28;20033;-91
2021/12/06 02:19:01;;;;;;;28.08;19.08;;;;;;;2.84;95.22;101297.72;5034903;28;20090;-91
2021/12/06 02:21:31;;;;;;;27.98;19.80;;;;;;;2.77;95.75;101293.25;5035952;28;20086;-91
2021/12/06 02:24:00;;;;;;;28.70;18.75;;;;;;;2.77;95.73;101294.13;5051623;28;20491;-90
2021/12/06 02:26:27;;;;;;;28.55;19.77;;;;;;;2.75;95.86;101301.06;5019052;28;20032;-91
2021/12/06 02:28:53;;;;;;;28.95;20.23;;;;;;;2.77;95.33;101308.94;5002131;28;20060;-91
2021/12/06 02:31:24;;;;;;;29.77;20.33;;;;;;;2.74;95.48;101311.47;5034826;28;20032;-91
2021/12/06 02:33:50;;;;;;;30.88;21.48;;;;;;;2.76;95.42;101313.28;5034884;28;20119;-90
2021/12/06 02:36:21;;;;;;;30.88;20.25;;;;;;;2.78;96.02;101314.19;5035041;28;20501;-91
2021/12/06 02:38:48;;;;;;;34.85;22.73;;;;;;;2.76;95.62;101323.72;5051128;28;20037;-90
2021/12/06 02:41:18;;;;;;;31.70;21.63;;;;;;;2.77;95.90;101327.25;5034724;28;20033;-90
2021/12/06 02:43:43;;;;;;;29.77;21.48;;;;;;;2.74;96.04;101327.19;5018339;28;20047;-90
2021/12/06 02:46:11;;;;;;;35.28;21.77;;;;;;;2.78;96.10;101335.09;5034049;28;20029;-90
2021/12/06 02:48:38;;;;;;;31.60;21.83;;;;;;;2.76;96.17;101328.09;5017897;28;20327;-91
2021/12/06 02:51:06;;;;;;;30.95;21.45;;;;;;;2.79;95.58;101338.59;5050953;28;20128;-91
2021/12/06 02:53:35;;;;;;;34.42;21.27;;;;;;;2.77;95.99;101337.72;5067508;28;20033;-90
2021/12/06 02:56:05;;;;;;;31.55;20.80;;;;;;;2.79;95.50;101349.97;5034554;28;20053;-91
2021/12/06 03:01:14;;;;;;;33.47;22.65;;;;;;;2.76;95.76;101343.78;5050981;28;20037;-91
2021/12/06 03:03:40;;;;;;;32.65;21.92;;;;;;;2.77;96.17;101348.19;5034319;28;20082;-91
2021/12/06 03:06:09;;;;;;;33.45;22.77;;;;;;;2.71;96.12;101335.84;5050713;28;20020;-91
2021/12/06 03:08:46;;;;;;;38.00;23.23;;;;;;;2.79;96.16;101343.81;5050480;28;20107;-91
2021/12/06 03:11:20;;;;;;;32.00;20.83;;;;;;;2.77;96.29;101349.06;5050906;28;20494;-90
2021/12/06 03:13:47;;;;;;;32.10;22.27;;;;;;;2.78;96.30;101345.56;5034113;28;20039;-90
2021/12/06 03:16:14;;;;;;;37.47;23.10;;;;;;;2.72;95.81;101341.94;5034127;28;20384;-91
2021/12/06 03:18:46;;;;;;;34.03;21.08;;;;;;;2.73;96.01;101346.34;5033911;28;20029;-91
2021/12/06 03:21:14;;;;;;;38.10;23.48;;;;;;;2.69;95.30;101337.53;5033824;28;20037;-91
2021/12/06 03:23:40;;;;;;;35.67;22.40;;;;;;;2.71;95.74;101341.06;5034028;28;20035;-90
2021/12/06 03:26:06;;;;;;;33.70;22.90;;;;;;;2.73;95.67;101346.34;5017140;28;20037;-91
2021/12/06 03:28:37;;;;;;;30.70;22.33;;;;;;;2.75;96.12;101347.25;5017287;28;20385;-91
2021/12/06 03:31:06;;;;;;;31.60;21.30;;;;;;;2.74;96.36;101350.72;5049876;28;20048;-91
2021/12/06 03:33:37;;;;;;;35.22;23.00;;;;;;;2.70;96.18;101346.31;5033448;28;20522;-90
2021/12/06 03:36:05;;;;;;;31.92;21.02;;;;;;;2.70;95.73;101344.56;5050469;28;20039;-90
2021/12/06 03:38:32;;;;;;;32.47;22.95;;;;;;;2.68;95.41;101338.41;5033174;28;20021;-90
2021/12/06 03:40:59;;;;;;;30.55;21.52;;;;;;;2.68;95.45;101355.84;5016884;28;20102;-90
2021/12/06 03:43:25;;;;;;;33.65;22.75;;;;;;;2.64;95.93;101348.78;5018160;28;20438;-91
2021/12/06 03:45:51;;;;;;;31.55;22.52;;;;;;;2.64;95.65;101356.63;5040661;28;20104;-90
2021/12/06 03:48:17;;;;;;;35.35;24.10;;;;;;;2.61;95.82;101352.22;5039891;28;20032;-90
2021/12/06 03:50:45;;;;;;;34.22;22.65;;;;;;;2.64;96.11;101352.28;4999127;28;20112;-90
2021/12/06 03:53:11;;;;;;;37.70;23.25;;;;;;;2.63;96.33;101352.28;5033768;28;20032;-90
2021/12/06 03:55:37;;;;;;;37.17;23.98;;;;;;;2.64;96.53;101354.00;5023444;28;20426;-90
2021/12/06 03:58:03;;;;;;;33.10;22.10;;;;;;;2.63;96.25;101349.66;5027645;28;20025;-90
2021/12/06 04:00:29;;;;;;;35.90;23.30;;;;;;;2.63;95.84;101352.28;5043913;28;20035;-90
2021/12/06 04:02:57;;;;;;;37.47;20.88;;;;;;;2.63;95.75;101352.28;5033357;28;20116;-90
2021/12/06 04:05:23;;;;;;;34.33;21.90;;;;;;;2.59;95.96;101352.19;5024098;28;20484;-91
2021/12/06 04:07:49;;;;;;;32.92;21.85;;;;;;;2.60;95.79;101353.09;5030594;28;20109;-90
2021/12/06 04:10:15;;;;;;;36.83;23.02;;;;;;;2.59;96.05;101364.38;5024855;28;20346;-90
2021/12/06 04:12:41;;;;;;;33.22;21.83;;;;;;;2.59;96.40;101361.75;5036007;28;20025;-91
2021/12/06 04:15:13;;;;;;;34.80;23.02;;;;;;;2.56;96.74;101354.75;5040369;28;20029;-90
2021/12/06 04:17:39;;;;;;;37.53;23.60;;;;;;;2.59;96.02;101361.75;5023891;28;20120;-91
2021/12/06 04:20:07;;;;;;;37.15;23.45;;;;;;;2.61;96.33;101367.91;5030106;28;20017;-91
2021/12/06 04:22:33;;;;;;;34.75;23.25;;;;;;;2.63;96.11;101368.81;5036638;28;20086;-90
2021/12/06 04:25:02;;;;;;;36.42;22.55;;;;;;;2.59;96.39;101360.03;5037114;28;20489;-90
2021/12/06 04:27:29;;;;;;;31.15;21.55;;;;;;;2.58;96.37;101358.28;5044066;28;20050;-91
2021/12/06 04:29:56;;;;;;;32.67;21.13;;;;;;;2.51;95.92;101355.53;5024865;28;20135;-91
2021/12/06 04:32:23;;;;;;;31.23;21.50;;;;;;;2.46;95.29;101347.59;5043105;28;20443;-90
2021/12/06 04:34:50;;;;;;;31.23;20.60;;;;;;;2.43;95.60;101358.00;5021309;28;20128;-91
2021/12/06 04:37:16;;;;;;;27.67;19.30;;;;;;;2.45;95.58;101368.44;5012631;28;20634;-90
2021/12/06 04:39:43;;;;;;;29.83;19.73;;;;;;;2.40;95.05;101375.31;5026781;28;20115;-91
2021/12/06 04:42:09;;;;;;;32.85;21.95;;;;;;;2.33;94.73;101370.00;5027380;28;20396;-91
2021/12/06 04:44:36;;;;;;;30.30;20.30;;;;;;;2.30;94.86;101376.88;5024263;28;20017;-90
2021/12/06 04:47:05;;;;;;;29.00;20.85;;;;;;;2.22;94.31;101368.00;5040463;28;20132;-90
2021/12/06 04:49:31;;;;;;;33.72;20.65;;;;;;;2.15;94.54;101377.44;5030355;28;20025;-90
2021/12/06 04:52:02;;;;;;;32.72;21.83;;;;;;;2.11;94.45;101384.34;5035715;28;20501;-91
2021/12/06 04:54:34;;;;;;;34.72;21.00;;;;;;;1.99;94.65;101376.22;5042572;28;20314;-90
2021/12/06 04:57:34;;;;;;;31.05;21.00;;;;;;;1.88;94.43;101376.00;5027932;28;20064;-90
2021/12/06 05:00:16;;;;;;;36.88;21.40;;;;;;;1.90;94.54;101384.78;5016314;28;20042;-90
2021/12/06 05:02:45;;;;;;;30.27;21.25;;;;;;;1.84;94.82;101381.13;5042552;28;20140;-88
2021/12/06 05:05:27;;;;;;;33.65;21.63;;;;;;;1.77;94.74;101387.06;5021245;28;20024;-87
2021/12/06 05:08:03;;;;;;;31.30;20.52;;;;;;;1.71;93.67;101396.53;5023718;28;20030;-87
2021/12/06 05:10:30;;;;;;;34.92;21.70;;;;;;;1.65;94.17;101398.09;5027620;28;20433;-87
2021/12/06 05:12:57;;;;;;;31.33;20.10;;;;;;;1.54;93.57;101397.84;5025501;28;20113;-88
2021/12/06 05:15:25;;;;;;;31.90;19.80;;;;;;;1.50;94.00;101404.72;5042628;28;20071;-88
2021/12/06 05:17:51;;;;;;;30.10;20.50;;;;;;;1.43;93.41;101397.56;5028387;28;20405;-87
2021/12/06 05:20:17;;;;;;;28.60;19.45;;;;;;;1.33;93.26;101397.31;5040396;28;20084;-87
2021/12/06 05:22:45;;;;;;;29.35;20.35;;;;;;;1.24;93.48;101391.03;5040555;28;20021;-87
2021/12/06 05:25:11;;;;;;;31.45;20.30;;;;;;;1.19;94.10;101394.38;5044482;28;20116;-87
2021/12/06 05:27:37;;;;;;;31.77;21.40;;;;;;;1.10;93.62;101400.22;5040889;28;20017;-87
2021/12/06 05:30:06;;;;;;;30.17;19.95;;;;;;;1.03;93.73;101398.31;5042415;28;20497;-87
2021/12/06 05:32:35;;;;;;;29.05;19.52;;;;;;;0.98;94.04;101407.75;5026094;28;20029;-87
2021/12/06 05:35:06;;;;;;;31.25;19.70;;;;;;;0.91;93.30;101404.06;5023742;28;20122;-87
2021/12/06 05:37:34;;;;;;;30.23;18.33;;;;;;;0.77;93.58;101390.69;5042258;28;20116;-87
2021/12/06 05:40:00;;;;;;;31.33;20.80;;;;;;;0.76;93.67;101401.94;5040605;28;20025;-87
2021/12/06 05:42:26;;;;;;;30.75;19.27;;;;;;;0.67;93.88;101391.28;5042805;28;20039;-87
2021/12/06 05:44:52;;;;;;;26.23;18.55;;;;;;;0.67;94.41;101400.81;5042720;28;20033;-87
2021/12/06 05:47:18;;;;;;;27.70;20.02;;;;;;;0.61;94.10;101404.13;5040568;28;20056;-87
2021/12/06 05:49:44;;;;;;;27.85;19.77;;;;;;;0.55;94.29;101389.22;5042177;28;20730;-87
2021/12/06 05:52:09;;;;;;;35.78;21.02;;;;;;;0.52;93.98;101398.66;5024178;28;20029;-87
2021/12/06 05:54:36;;;;;;;27.67;19.17;;;;;;;0.49;94.53;101398.56;5024334;28;20384;-87
2021/12/06 05:57:04;;;;;;;33.45;21.35;;;;;;;0.49;94.37;101398.56;5045035;28;20047;-87
2021/12/06 05:59:30;;;;;;;35.15;21.20;;;;;;;0.48;95.45;101402.03;5051205;28;20094;-87
2021/12/06 06:01:56;;;;;;;36.10;23.02;;;;;;;0.55;95.58;101404.84;5034648;28;20037;-87
2021/12/06 06:04:23;;;;;;;37.78;20.80;;;;;;;0.57;95.04;101413.59;5050159;28;20384;-87
2021/12/06 06:06:49;;;;;;;58.55;22.20;;;;;;;0.54;95.36;101412.63;5018225;28;20124;-87
2021/12/06 06:09:15;;;;;;;140.70;20.90;;;;;;;0.61;95.65;101427.59;5051043;28;20448;-87
2021/12/06 06:11:41;;;;;;;103.30;20.95;;;;;;;0.59;95.98;101421.44;5034387;28;20037;-87
2021/12/06 06:14:07;;;;;;;172.88;19.80;;;;;;;0.62;96.01;101427.66;5034319;28;20542;-87
2021/12/06 06:16:36;;;;;;;301.85;24.40;;;;;;;0.57;95.89;101420.50;5017979;28;20060;-86
2021/12/06 06:19:04;;;;;;;212.90;20.58;;;;;;;0.60;96.12;101437.13;5034248;28;20457;-87
2021/12/06 06:21:30;;;;;;;29.52;16.67;;;;;;;0.56;95.95;101439.59;5034323;28;20295;-87
2021/12/06 06:23:55;;;;;;;70.38;17.58;;;;;;;0.48;95.33;101442.00;5050827;28;20101;-87
2021/12/06 06:26:21;;;;;;;51.10;15.82;;;;;;;0.43;95.16;101451.41;5017820;28;20095;-87
2021/12/06 06:28:46;;;;;;;95.50;16.50;;;;;;;0.38;95.27;101443.47;5033838;28;20056;-87
2021/12/06 06:31:15;;;;;;;91.40;15.82;;;;;;;0.34;95.21;101451.13;5050820;28;20465;-87
2021/12/06 06:33:40;;;;;;;116.82;17.30;;;;;;;0.36;96.19;101454.66;5033777;28;20037;-87
2021/12/06 06:36:06;;;;;;;89.47;17.50;;;;;;;0.38;96.22;101455.59;5050610;28;20032;-87
2021/12/06 06:38:32;;;;;;;134.68;19.70;;;;;;;0.38;96.11;101450.41;5034010;28;20021;-87
2021/12/06 06:40:58;;;;;;;128.02;16.02;;;;;;;0.38;96.51;101442.56;5050563;28;20044;-87
2021/12/06 06:43:23;;;;;;;88.53;15.02;;;;;;;0.37;96.34;101446.91;5033788;28;20025;-87
2021/12/06 06:45:49;;;;;;;36.28;14.40;;;;;;;0.33;96.66;101447.66;5033700;28;20037;-87
2021/12/06 06:48:15;;;;;;;95.50;15.20;;;;;;;0.38;96.28;101456.47;5050125;28;20102;-87
2021/12/06 06:50:41;;;;;;;47.05;15.60;;;;;;;0.36;96.77;101452.06;5017272;28;20051;-87
2021/12/06 06:53:06;;;;;;;100.63;15.40;;;;;;;0.35;96.66;101439.91;5050432;28;20380;-87
2021/12/06 06:55:32;;;;;;;48.13;14.27;;;;;;;0.39;97.07;101452.16;5033375;28;20520;-87
2021/12/06 06:57:58;;;;;;;56.35;14.05;;;;;;;0.46;96.84;101459.31;5051663;28;20032;-87
2021/12/06 07:00:31;;;;;;;95.07;16.83;;;;;;;0.47;97.55;101458.50;5033340;28;20037;-87
2021/12/06 07:02:57;;;;;;;58.75;16.85;;;;;;;0.48;97.83;101459.38;5050297;28;20128;-86
2021/12/06 07:05:23;;;;;;;36.22;17.70;;;;;;;0.51;97.56;101460.31;5049821;28;20527;-87
2021/12/06 07:07:49;;;;;;;58.15;18.52;;;;;;;0.57;97.77;101452.69;5033484;28;20036;-86
2021/12/06 07:10:14;;;;;;;84.75;18.55;;;;;;;0.60;98.12;101458.00;5049969;28;20163;-87
2021/12/06 07:12:45;;;;;;;75.95;19.55;;;;;;;0.66;98.41;101459.88;5049712;28;20079;-87
2021/12/06 07:15:13;;;;;;;69.20;19.73;;;;;;;0.70;98.14;101461.75;5033660;28;20056;-87
2021/12/06 07:17:40;;;;;;;39.17;18.63;;;;;;;0.71;98.78;101465.22;5033202;28;20044;-88
2021/12/06 07:20:07;;;;;;;54.95;19.15;;;;;;;0.67;98.42;101464.28;5032925;28;20384;-88
2021/12/06 07:22:32;;;;;;;53.63;18.88;;;;;;;0.73;98.46;101468.78;5032636;28;20048;-87
2021/12/06 07:24:58;;;;;;;98.50;23.13;;;;;;;0.82;99.13;101475.13;5032795;28;20130;-88
2021/12/06 07:27:23;;;;;;;74.80;18.30;;;;;;;0.83;99.41;101479.50;5032784;28;20033;-87
2021/12/06 07:29:49;;;;;;;95.05;21.30;;;;;;;0.84;99.76;101478.66;5016102;28;20045;-88
2021/12/06 07:32:14;;;;;;;112.60;24.33;;;;;;;0.85;99.83;101485.63;5032477;28;20187;-88
2021/12/06 07:34:40;;;;;;;148.32;26.77;;;;;;;0.90;100.00;101490.97;5049285;28;20063;-87
2021/12/06 07:37:06;;;;;;;181.07;24.48;;;;;;;0.92;100.00;101494.53;5049525;28;20033;-88
2021/12/06 07:39:32;;;;;;;190.00;28.65;;;;;;;0.87;100.00;101488.31;5048785;28;20033;-88
2021/12/06 07:41:58;;;;;;;153.50;26.65;;;;;;;0.94;100.00;101507.59;5049076;28;20540;-87
2021/12/06 07:44:24;;;;;;;108.78;23.42;;;;;;;0.94;100.00;101500.66;5015795;28;20156;-87
2021/12/06 07:46:52;;;;;;;106.30;25.25;;;;;;;0.89;100.00;101477.88;5050377;28;20052;-88
2021/12/06 07:49:18;;;;;;;66.90;23.52;;;;;;;0.96;100.00;101487.66;5048935;28;20065;-87
2021/12/06 07:51:45;;;;;;;114.13;22.67;;;;;;;0.98;100.00;101475.53;5032574;28;20119;-88
2021/12/06 07:54:10;;;;;;;151.38;24.73;;;;;;;0.99;100.00;101475.59;5029630;28;20445;-88
2021/12/06 07:56:36;;;;;;;92.57;21.27;;;;;;;1.03;100.00;101479.16;5007717;28;20131;-87
2021/12/06 07:59:02;;;;;;;58.10;23.30;;;;;;;0.97;100.00;101466.84;5029079;28;20489;-87
2021/12/06 08:01:28;;;;;;;104.97;23.33;;;;;;;1.01;100.00;101466.06;5029118;28;20021;-87
2021/12/06 08:03:54;;;;;;;95.40;21.75;;;;;;;1.05;100.00;101467.94;5029433;28;20537;-88
2021/12/06 08:06:19;;;;;;;97.28;22.85;;;;;;;1.08;100.00;101456.69;5015337;28;20037;-88
2021/12/06 08:08:46;;;;;;;79.80;24.40;;;;;;;1.08;100.00;101457.56;5032228;28;20056;-88
2021/12/06 08:11:16;;;;;;;89.55;23.83;;;;;;;1.08;100.00;101449.75;5016115;28;20169;-88
2021/12/06 08:13:45;;;;;;;68.50;24.80;;;;;;;1.10;100.00;101447.19;5049068;28;20128;-86
2021/12/06 08:16:18;;;;;;;74.93;23.65;;;;;;;1.07;100.00;101441.91;5032609;28;20029;-87
2021/12/06 08:18:44;;;;;;;100.18;25.73;;;;;;;1.16;100.00;101455.16;5048613;28;20044;-86
2021/12/06 08:21:11;;;;;;;56.72;23.48;;;;;;;1.19;100.00;101447.44;5048835;28;20037;-86
2021/12/06 08:23:37;;;;;;;53.55;23.92;;;;;;;1.20;100.00;101445.69;5031507;28;20067;-86
2021/12/06 08:26:05;;;;;;;61.17;24.10;;;;;;;1.24;100.00;101450.16;5047458;28;20497;-87
2021/12/06 08:28:32;;;;;;;52.40;21.83;;;;;;;1.26;100.00;101461.50;5048298;28;20049;-87
2021/12/06 08:30:58;;;;;;;52.13;23.38;;;;;;;1.33;100.00;101463.44;5048276;28;20036;-87
2021/12/06 08:33:24;;;;;;;61.45;28.63;;;;;;;1.33;100.00;101466.03;5048144;28;20556;-87
2021/12/06 08:35:53;;;;;;;56.28;28.17;;;;;;;1.32;100.00;101460.81;5048440;28;20091;-87
2021/12/06 08:38:23;;;;;;;75.50;29.55;;;;;;;1.38;100.00;101477.47;5048736;28;20029;-87
2021/12/06 08:40:50;;;;;;;62.78;29.15;;;;;;;1.41;100.00;101479.28;5048329;28;20481;-87
2021/12/06 08:43:17;;;;;;;91.90;30.92;;;;;;;1.41;100.00;101485.41;5048833;28;20024;-87
2021/12/06 08:45:49;;;;;;;72.13;28.90;;;;;;;1.41;100.00;101481.88;5052197;28;20032;-86
2021/12/06 08:48:15;;;;;;;72.53;30.33;;;;;;;1.47;100.00;101495.13;5035530;28;20090;-86
2021/12/06 08:50:41;;;;;;;71.45;29.83;;;;;;;1.48;100.00;101496.88;5035430;28;20468;-87
2021/12/06 08:53:06;;;;;;;101.22;29.92;;;;;;;1.50;100.00;101497.78;5053382;28;20040;-87
2021/12/06 08:55:33;;;;;;;63.75;31.27;;;;;;;1.45;100.00;101486.34;5052258;28;20086;-87
2021/12/06 08:57:58;;;;;;;98.93;31.75;;;;;;;1.48;100.00;101499.47;5053070;28;20025;-87
2021/12/06 09:00:28;;;;;;;79.65;31.17;;;;;;;1.47;100.00;101500.34;5035141;28;20020;-87
2021/12/06 09:02:54;;;;;;;102.38;27.00;;;;;;;1.45;100.00;101500.28;5051882;28;20064;-86
2021/12/06 09:05:21;;;;;;;89.10;31.23;;;;;;;1.52;100.00;101513.50;5035353;28;20029;-86
2021/12/06 09:07:48;;;;;;;81.72;32.08;;;;;;;1.44;100.00;101495.91;5035766;28;20040;-86
2021/12/06 09:10:14;;;;;;;78.50;30.95;;;;;;;1.57;100.00;101515.38;5052182;28;20029;-86
2021/12/06 09:12:40;;;;;;;79.60;34.75;;;;;;;1.51;100.00;101494.38;5035353;28;20041;-87
2021/12/06 09:15:11;;;;;;;61.05;26.80;;;;;;;1.59;100.00;101499.78;5051958;28;20425;-86
2021/12/06 09:17:37;;;;;;;64.50;30.48;;;;;;;1.64;100.00;101496.44;5052399;28;20115;-86
2021/12/06 09:20:05;;;;;;;66.60;32.17;;;;;;;1.61;100.00;101491.13;5035469;28;20154;-86
2021/12/06 09:22:31;;;;;;;68.35;31.77;;;;;;;1.63;100.00;101489.44;5051853;28;20059;-86
2021/12/06 09:24:57;;;;;;;76.80;33.00;;;;;;;1.69;100.00;101496.53;5051705;28;20021;-86
2021/12/06 09:27:23;;;;;;;73.60;33.40;;;;;;;1.64;100.00;101485.97;5035409;28;20037;-86
2021/12/06 09:29:49;;;;;;;81.28;35.60;;;;;;;1.68;100.00;101494.75;5034768;28;20052;-86
2021/12/06 09:32:16;;;;;;;68.13;32.55;;;;;;;1.70;100.00;101501.78;5035122;28;20029;-86
2021/12/06 09:34:46;;;;;;;75.88;35.22;;;;;;;1.73;100.00;101495.75;5051796;28;20461;-86
2021/12/06 09:37:14;;;;;;;76.00;34.70;;;;;;;1.81;100.00;101502.06;5051564;28;20037;-86
2021/12/06 09:39:40;;;;;;;69.07;33.70;;;;;;;1.78;100.00;101483.72;5035641;28;20338;-86
2021/12/06 09:42:07;;;;;;;82.70;34.67;;;;;;;1.84;100.00;101496.91;5018988;28;20037;-86
2021/12/06 09:44:33;;;;;;;75.72;35.80;;;;;;;1.84;100.00;101501.25;5051888;28;20387;-86
2021/12/06 09:46:59;;;;;;;71.38;34.45;;;;;;;1.88;100.00;101510.91;5035369;28;20441;-87
2021/12/06 09:49:25;;;;;;;64.82;33.63;;;;;;;1.86;100.00;101512.63;5035151;28;20120;-87
2021/12/06 09:52:01;;;;;;;63.22;32.55;;;;;;;1.83;100.00;101499.47;5051618;28;20055;-87
2021/12/06 09:54:34;;;;;;;58.50;30.10;;;;;;;1.87;100.00;101506.56;5051263;28;20127;-88
2021/12/06 09:57:02;;;;;;;62.95;29.98;;;;;;;1.87;100.00;101514.38;5051453;28;20056;-88
2021/12/06 09:59:28;;;;;;;58.53;30.05;;;;;;;1.86;100.00;101504.81;5034875;28;20025;-86
2021/12/06 10:01:59;;;;;;;62.97;28.77;;;;;;;1.86;100.00;101507.41;5034477;28;20047;-89
2021/12/06 10:04:28;;;;;;;66.78;30.80;;;;;;;1.79;100.00;101503.75;5050606;28;20024;-86
2021/12/06 10:06:55;;;;;;;65.32;32.00;;;;;;;1.81;100.00;101501.19;5050899;28;20021;-87
2021/12/06 10:09:23;;;;;;;62.63;30.45;;;;;;;1.82;100.00;101511.66;5050676;28;20370;-89
2021/12/06 10:11:51;;;;;;;74.90;32.58;;;;;;;1.71;100.00;101489.63;5034547;28;20029;-88
2021/12/06 10:14:16;;;;;;;55.38;26.98;;;;;;;1.77;100.00;101496.72;5050299;28;20024;-88
2021/12/06 10:16:43;;;;;;;64.65;29.85;;;;;;;1.76;100.00;101493.25;5050506;28;20469;-87
2021/12/06 10:19:09;;;;;;;59.05;28.58;;;;;;;1.77;100.00;101481.94;5033814;28;20128;-87
2021/12/06 10:21:37;;;;;;;66.32;28.33;;;;;;;1.77;100.00;101463.66;5052109;28;20505;-88
2021/12/06 10:24:08;;;;;;;51.92;26.35;;;;;;;1.81;100.00;101467.25;5050470;28;20036;-87
2021/12/06 10:26:34;;;;;;;;;;;;;;;1.87;100.00;101463.03;5052829;28;20082;-87
2021/12/06 10:29:07;;;;;;;63.35;29.65;;;;;;;1.89;100.00;101460.47;5049916;28;20265;-87
2021/12/06 10:31:40;;;;;;;71.82;31.83;;;;;;;1.83;100.00;101447.25;5050297;28;20392;-87
2021/12/06 10:34:13;;;;;;;69.03;31.02;;;;;;;1.88;100.00;101454.38;5033195;28;20420;-89
2021/12/06 10:36:38;;;;;;;68.50;29.73;;;;;;;1.88;100.00;101461.28;5033484;28;20053;-86
2021/12/06 10:39:07;;;;;;;83.47;33.08;;;;;;;1.96;100.00;101464.13;5049942;28;20125;-84
2021/12/06 10:41:34;;;;;;;106.85;36.90;;;;;;;1.95;100.00;101460.59;5033751;28;20067;-86
2021/12/06 10:44:10;;;;;;;110.70;38.22;;;;;;;1.98;100.00;101451.94;5033448;28;20025;-87
2021/12/06 10:46:40;;;;;;;128.73;41.78;;;;;;;1.89;100.00;101436.97;5044428;28;20460;-87
2021/12/06 10:49:11;;;;;;;127.72;39.45;;;;;;;1.92;100.00;101434.41;5037144;28;20476;-87
2021/12/06 10:51:37;;;;;;;114.00;37.33;;;;;;;1.98;100.00;101441.50;5033070;28;20037;-87
2021/12/06 10:54:08;;;;;;;113.68;36.33;;;;;;;1.99;100.00;101425.88;5026519;28;20384;-89
2021/12/06 10:56:48;;;;;;;105.35;37.13;;;;;;;1.91;100.00;101402.19;5040376;28;20061;-87
2021/12/06 10:59:19;;;;;;;110.70;35.95;;;;;;;1.99;100.00;101411.94;5047956;28;20017;-89
2021/12/06 11:01:47;;;;;;;132.98;39.95;;;;;;;2.00;100.00;101398.00;5048230;28;20032;-87
2021/12/06 11:04:16;;;;;;;103.20;34.35;;;;;;;1.97;100.00;101393.59;5041974;28;20499;-87
2021/12/06 11:06:46;;;;;;;106.72;35.70;;;;;;;2.02;100.00;101402.41;5040599;28;20505;-88
2021/12/06 11:09:15;;;;;;;91.65;32.25;;;;;;;1.98;100.00;101394.47;5034622;28;20116;-87
2021/12/06 11:11:44;;;;;;;97.55;34.20;;;;;;;1.99;100.00;101404.09;5047295;28;20017;-86
2021/12/06 11:14:13;;;;;;;99.60;35.15;;;;;;;1.99;100.00;101394.53;5057186;28;20033;-86
2021/12/06 11:16:45;;;;;;;93.72;33.50;;;;;;;1.91;100.00;101386.53;5041764;28;20100;-86
2021/12/06 11:19:16;;;;;;;96.45;35.40;;;;;;;1.95;100.00;101384.84;5031969;28;20060;-86
2021/12/06 11:21:49;;;;;;;;;;;;;;;2.06;100.00;101385.09;5030811;28;20112;-86
2021/12/06 11:24:30;;;;;;;78.78;30.10;;;;;;;2.03;99.85;101371.94;5063847;28;19960;-85
2021/12/06 11:27:19;;;;;;;87.93;31.52;;;;;;;2.01;100.00;101358.88;5044803;28;20052;-87
2021/12/06 11:29:49;;;;;;;63.53;26.75;;;;;;;1.99;99.56;101350.13;5047796;28;20053;-85
2021/12/06 11:32:26;;;;;;;57.17;24.17;;;;;;;2.05;99.54;101362.41;5046975;28;20481;-85